createdAt,value
2024-03-13T00:00:36.133Z,99.90
2024-03-13T00:03:04.822Z,99.90
2024-03-13T00:05:33.192Z,99.90
2024-03-13T00:08:02.703Z,99.90
2024-03-13T00:10:32.108Z,99.90
2024-03-13T00:13:01.848Z,99.90
2024-03-13T00:15:30.453Z,99.90
2024-03-13T00:17:58.870Z,99.90
2024-03-13T00:20:31.511Z,99.90
2024-03-13T00:22:59.923Z,99.90
2024-03-13T00:25:28.299Z,99.90
2024-03-13T00:27:57.054Z,99.90
2024-03-13T00:30:26.756Z,99.90
2024-03-13T00:32:55.372Z,99.90
2024-03-13T00:35:23.883Z,99.90
2024-03-13T00:37:52.759Z,99.90
2024-03-13T00:40:21.358Z,99.90
2024-03-13T00:42:49.878Z,99.90
2024-03-13T00:45:19.129Z,99.90
2024-03-13T00:47:48.985Z,99.90
2024-03-13T00:50:17.598Z,99.90
2024-03-13T00:52:45.989Z,99.90
2024-03-13T00:55:14.463Z,99.90
2024-03-13T00:57:44.398Z,99.90
2024-03-13T01:00:16.562Z,99.90
2024-03-13T01:02:46.379Z,99.90
2024-03-13T01:05:16.617Z,99.90
2024-03-13T01:07:46.852Z,99.90
2024-03-13T01:10:15.343Z,99.90
2024-03-13T01:12:44.021Z,99.90
2024-03-13T01:15:15.955Z,99.90
2024-03-13T01:17:44.379Z,99.90
2024-03-13T01:20:17.258Z,99.90
2024-03-13T01:22:49.485Z,99.90
2024-03-13T01:25:20.937Z,99.90
2024-03-13T01:27:49.968Z,99.90
2024-03-13T01:30:19.212Z,99.90
2024-03-13T01:32:48.758Z,99.90
2024-03-13T01:35:20.925Z,99.90
2024-03-13T01:37:59.514Z,99.90
2024-03-13T01:40:48.381Z,99.90
2024-03-13T01:43:35.226Z,99.90
2024-03-13T01:46:36.612Z,99.90
2024-03-13T01:49:23.654Z,99.90
2024-03-13T01:52:13.080Z,99.90
2024-03-13T01:54:55.738Z,99.90
2024-03-13T01:57:33.723Z,99.90
2024-03-13T02:00:25.537Z,99.90
2024-03-13T02:02:54.844Z,99.90
2024-03-13T02:05:23.617Z,99.90
2024-03-13T02:07:52.099Z,99.90
2024-03-13T02:10:22.054Z,99.90
2024-03-13T02:13:04.308Z,99.90
2024-03-13T02:15:32.861Z,99.90
2024-03-13T02:18:04.967Z,99.90
2024-03-13T02:20:34.735Z,99.90
2024-03-13T02:23:05.678Z,99.90
2024-03-13T02:25:35.603Z,99.90
2024-03-13T02:28:04.455Z,99.90
2024-03-13T02:30:33.070Z,99.90
2024-03-13T02:33:01.691Z,99.90
2024-03-13T02:35:30.280Z,99.90
2024-03-13T02:37:58.786Z,99.90
2024-03-13T02:40:27.341Z,99.90
2024-03-13T02:42:55.882Z,99.90
2024-03-13T02:45:26.062Z,99.90
2024-03-13T02:47:54.685Z,99.90
2024-03-13T02:50:23.248Z,99.90
2024-03-13T02:52:51.812Z,99.90
2024-03-13T02:55:20.515Z,99.90
2024-03-13T02:57:50.075Z,99.90
2024-03-13T03:00:18.801Z,99.90
2024-03-13T03:02:47.359Z,99.90
2024-03-13T03:05:16.185Z,99.90
2024-03-13T03:07:44.830Z,99.90
2024-03-13T03:10:14.020Z,99.90
2024-03-13T03:12:44.163Z,99.90
2024-03-13T03:15:13.312Z,99.90
2024-03-13T03:17:41.922Z,99.90
2024-03-13T03:20:11.635Z,99.90
2024-03-13T03:22:40.155Z,99.90
2024-03-13T03:25:10.963Z,99.90
2024-03-13T03:27:39.960Z,99.90
2024-03-13T03:30:12.877Z,99.90
2024-03-13T03:32:41.770Z,99.90
2024-03-13T03:35:11.863Z,99.90
2024-03-13T03:37:40.501Z,99.90
2024-03-13T03:40:14.488Z,99.90
2024-03-13T03:42:43.184Z,99.90
2024-03-13T03:45:13.228Z,99.90
2024-03-13T03:47:41.986Z,99.90
2024-03-13T03:50:10.923Z,99.90
2024-03-13T03:52:39.740Z,99.90
2024-03-13T03:55:09.014Z,99.90
2024-03-13T03:57:37.624Z,99.90
2024-03-13T04:00:07.820Z,99.90
2024-03-13T04:02:37.218Z,99.90
2024-03-13T04:05:08.056Z,99.90
2024-03-13T04:07:37.932Z,99.90
2024-03-13T04:10:06.809Z,99.90
2024-03-13T04:12:36.030Z,99.90
2024-03-13T04:15:04.886Z,99.90
2024-03-13T04:17:33.681Z,99.90
2024-03-13T04:20:02.469Z,99.90
2024-03-13T04:22:33.533Z,99.90
2024-03-13T04:25:02.292Z,99.90
2024-03-13T04:27:31.428Z,99.90
2024-03-13T04:30:01.109Z,99.90
2024-03-13T04:32:30.005Z,99.90
2024-03-13T04:34:59.879Z,99.90
2024-03-13T04:37:28.577Z,99.90
2024-03-13T04:39:58.731Z,99.90
2024-03-13T04:42:27.853Z,99.90
2024-03-13T04:44:57.483Z,99.90
2024-03-13T04:47:26.403Z,99.90
2024-03-13T04:49:55.056Z,99.90
2024-03-13T04:52:24.632Z,99.90
2024-03-13T04:54:54.059Z,99.90
2024-03-13T04:57:22.627Z,99.90
2024-03-13T04:59:51.745Z,99.90
2024-03-13T05:02:20.773Z,99.90
2024-03-13T05:04:50.068Z,99.90
2024-03-13T05:07:19.792Z,99.90
2024-03-13T05:09:49.257Z,99.90
2024-03-13T05:12:17.903Z,99.90
2024-03-13T05:14:46.628Z,99.90
2024-03-13T05:17:17.413Z,99.90
2024-03-13T05:19:46.237Z,99.90
2024-03-13T05:22:14.845Z,99.90
2024-03-13T05:24:44.043Z,99.90
2024-03-13T05:27:13.024Z,99.90
2024-03-13T05:29:41.703Z,99.90
2024-03-13T05:32:11.420Z,99.90
2024-03-13T05:34:40.105Z,99.90
2024-03-13T05:37:09.279Z,99.90
2024-03-13T05:39:37.904Z,99.90
2024-03-13T05:42:06.943Z,99.90
2024-03-13T05:44:36.962Z,99.90
2024-03-13T05:47:05.916Z,99.90
2024-03-13T05:49:34.618Z,99.90
2024-03-13T05:52:03.202Z,99.90
2024-03-13T05:54:31.837Z,99.90
2024-03-13T05:57:00.451Z,99.90
2024-03-13T05:59:29.055Z,99.90
2024-03-13T06:01:57.732Z,99.90
2024-03-13T06:04:26.565Z,99.90
2024-03-13T06:06:55.171Z,99.90
2024-03-13T06:09:24.396Z,99.90
2024-03-13T06:11:53.765Z,99.90
2024-03-13T06:14:22.312Z,99.90
2024-03-13T06:16:50.946Z,99.90
2024-03-13T06:19:19.706Z,99.90
2024-03-13T06:21:48.409Z,99.90
2024-03-13T06:24:21.600Z,99.90
2024-03-13T06:26:51.852Z,99.90
2024-03-13T06:29:37.923Z,99.90
2024-03-13T06:32:07.576Z,99.90
2024-03-13T06:34:38.048Z,99.90
2024-03-13T06:37:07.096Z,99.90
2024-03-13T06:39:37.417Z,99.90
2024-03-13T06:42:06.149Z,99.90
2024-03-13T06:44:34.714Z,99.90
2024-03-13T06:47:03.210Z,99.90
2024-03-13T06:49:31.857Z,99.90
2024-03-13T06:52:01.046Z,99.90
2024-03-13T06:54:29.864Z,99.90
2024-03-13T06:56:58.803Z,99.90
2024-03-13T06:59:27.537Z,99.90
2024-03-13T07:01:57.424Z,99.90
2024-03-13T07:04:26.283Z,99.90
2024-03-13T07:06:59.205Z,99.90
2024-03-13T07:09:28.436Z,99.90
2024-03-13T07:11:58.918Z,99.90
2024-03-13T07:14:28.529Z,99.90
2024-03-13T07:16:57.203Z,99.90
2024-03-13T07:19:25.795Z,99.90
2024-03-13T07:21:55.944Z,99.90
2024-03-13T07:24:24.545Z,99.90
2024-03-13T07:26:53.117Z,99.90
2024-03-13T07:29:21.582Z,99.90
2024-03-13T07:31:50.367Z,99.90
2024-03-13T07:34:18.885Z,99.90
2024-03-13T07:36:47.438Z,99.90
2024-03-13T07:39:16.273Z,99.90
2024-03-13T07:41:44.932Z,99.90
2024-03-13T07:44:13.791Z,99.90
2024-03-13T07:46:42.332Z,99.90
2024-03-13T07:49:10.894Z,99.90
2024-03-13T07:51:39.970Z,99.90
2024-03-13T07:54:09.081Z,99.90
2024-03-13T07:56:38.872Z,99.90
2024-03-13T07:59:07.913Z,99.90
2024-03-13T08:01:42.779Z,99.90
2024-03-13T08:04:12.779Z,99.90
2024-03-13T09:07:45.907Z,99.90
2024-03-13T09:10:14.771Z,99.90
2024-03-13T09:12:43.812Z,99.90
2024-03-13T09:15:12.430Z,99.90
2024-03-13T09:17:41.325Z,99.90
2024-03-13T09:20:14.644Z,99.90
2024-03-13T09:22:44.233Z,99.90
2024-03-13T09:25:14.054Z,99.90
2024-03-13T09:27:42.687Z,99.90
2024-03-13T09:30:12.908Z,99.90
2024-03-13T09:32:42.286Z,99.90
2024-03-13T09:35:14.660Z,99.90
2024-03-13T09:37:43.804Z,99.90
2024-03-13T09:40:14.359Z,99.90
2024-03-13T09:42:42.796Z,99.90
2024-03-13T09:45:13.952Z,99.90
2024-03-13T09:47:45.050Z,99.90
2024-03-13T09:50:14.032Z,99.90
2024-03-13T09:52:42.531Z,99.90
2024-03-13T09:55:12.851Z,99.90
2024-03-13T09:57:41.466Z,99.90
2024-03-13T10:00:11.843Z,99.90
2024-03-13T10:02:40.798Z,99.90
2024-03-13T10:05:12.627Z,99.90
2024-03-13T10:07:41.359Z,99.90
2024-03-13T10:10:15.164Z,99.90
2024-03-13T10:12:43.822Z,99.90
2024-03-13T10:15:15.185Z,99.90
2024-03-13T10:17:44.992Z,99.90
2024-03-13T10:20:15.016Z,99.90
2024-03-13T10:22:45.320Z,99.90
2024-03-13T10:25:16.410Z,99.90
2024-03-13T10:27:44.966Z,99.90
2024-03-13T10:30:14.064Z,99.90
2024-03-13T10:32:42.781Z,99.90
2024-03-13T10:35:12.297Z,99.90
2024-03-13T10:37:42.861Z,99.90
2024-03-13T10:40:15.756Z,99.90
2024-03-13T10:42:44.409Z,99.90
2024-03-13T10:45:15.574Z,99.90
2024-03-13T10:47:47.899Z,99.90
2024-03-13T10:50:17.123Z,99.90
2024-03-13T10:52:45.829Z,99.90
2024-03-13T10:55:14.865Z,99.90
2024-03-13T10:57:44.256Z,99.90
2024-03-13T11:00:18.422Z,99.90
2024-03-13T11:02:47.174Z,99.90
2024-03-13T11:05:18.411Z,99.90
2024-03-13T11:07:47.337Z,99.90
2024-03-13T11:10:22.677Z,99.90
2024-03-13T11:12:52.438Z,99.90
2024-03-13T11:15:21.690Z,99.90
2024-03-13T11:17:54.989Z,99.90
2024-03-13T11:20:27.780Z,99.90
2024-03-13T11:22:59.685Z,99.90
2024-03-13T11:25:28.299Z,99.90
2024-03-13T11:27:57.062Z,99.90
2024-03-13T11:30:27.080Z,99.90
2024-03-13T11:32:56.347Z,99.90
2024-03-13T11:35:24.975Z,99.90
2024-03-13T11:37:55.865Z,99.90
2024-03-13T11:40:26.120Z,99.90
2024-03-13T11:42:54.808Z,99.90
2024-03-13T11:45:24.913Z,99.90
2024-03-13T11:47:58.494Z,99.90
2024-03-13T11:50:27.504Z,99.90
2024-03-13T11:53:02.432Z,99.90
2024-03-13T11:55:31.266Z,99.90
2024-03-13T11:58:08.010Z,99.90
2024-03-13T12:00:37.288Z,99.90
2024-03-13T12:03:05.896Z,99.90
2024-03-13T12:05:35.341Z,99.90
2024-03-13T12:08:04.630Z,99.90
2024-03-13T12:10:33.215Z,99.90
2024-03-13T12:13:06.892Z,99.90
2024-03-13T12:15:37.677Z,99.90
2024-03-13T12:18:07.191Z,99.90
2024-03-13T12:20:37.558Z,99.90
2024-03-13T12:23:08.116Z,99.90
2024-03-13T12:25:36.979Z,99.90
2024-03-13T12:28:05.829Z,99.90
2024-03-13T12:30:38.999Z,99.90
2024-03-13T12:33:07.893Z,99.90
2024-03-13T12:35:37.638Z,99.90
2024-03-13T12:38:07.071Z,99.90
2024-03-13T12:40:36.044Z,99.90
2024-03-13T12:43:08.480Z,99.90
2024-03-13T12:45:37.236Z,99.90
2024-03-13T12:48:06.155Z,99.90
2024-03-13T12:50:35.232Z,99.90
2024-03-13T12:53:06.287Z,99.90
2024-03-13T12:55:35.337Z,99.90
2024-03-13T12:58:06.877Z,99.90
2024-03-13T13:00:37.806Z,99.90
2024-03-13T13:03:08.139Z,99.90
2024-03-13T13:05:36.967Z,99.90
2024-03-13T13:08:07.850Z,99.90
2024-03-13T13:10:38.976Z,99.90
2024-03-13T13:13:07.499Z,99.90
2024-03-13T13:15:36.560Z,99.90
2024-03-13T13:18:05.446Z,99.90
2024-03-13T13:20:35.058Z,99.90
2024-03-13T13:23:04.932Z,99.90
2024-03-13T13:25:33.474Z,99.90
2024-03-13T13:28:01.928Z,99.90
2024-03-13T13:30:32.114Z,99.90
2024-03-13T13:33:00.715Z,99.90
2024-03-13T13:35:29.408Z,99.90
2024-03-13T13:38:00.458Z,99.90
2024-03-13T13:40:29.468Z,99.90
2024-03-13T13:43:01.440Z,99.90
2024-03-13T13:45:30.206Z,99.90
2024-03-13T13:47:59.322Z,99.90
2024-03-13T13:50:28.195Z,99.90
2024-03-13T13:52:57.164Z,99.90
2024-03-13T13:55:25.671Z,99.90
2024-03-13T13:57:54.478Z,99.90
2024-03-13T14:00:25.259Z,99.90
2024-03-13T14:02:56.317Z,99.90
2024-03-13T14:05:28.441Z,99.90
2024-03-13T14:07:58.009Z,99.90
2024-03-13T14:10:26.718Z,99.90
2024-03-13T14:12:59.159Z,99.90
2024-03-13T14:15:28.057Z,99.90
2024-03-13T14:17:56.894Z,99.90
2024-03-13T14:20:25.490Z,99.90
2024-03-13T14:22:56.365Z,99.90
2024-03-13T14:25:27.403Z,99.90
2024-03-13T14:27:56.639Z,96.90
2024-03-13T14:30:26.750Z,95.10
2024-03-13T14:32:55.459Z,93.10
2024-03-13T14:35:24.398Z,92.20
2024-03-13T14:37:52.943Z,90.70
2024-03-13T14:40:23.882Z,87.20
2024-03-13T14:42:52.856Z,85.40
2024-03-13T14:45:23.993Z,88.10
2024-03-13T14:47:53.187Z,89.90
2024-03-13T14:50:22.839Z,91.60
2024-03-13T14:53:02.721Z,93.70
2024-03-13T14:55:35.078Z,95.70
2024-03-13T14:58:05.258Z,98.10
2024-03-13T15:00:34.537Z,99.90
2024-03-13T15:03:04.056Z,99.90
2024-03-13T15:05:36.336Z,99.90
2024-03-13T15:08:06.317Z,99.90
2024-03-13T15:10:35.103Z,99.90
2024-03-13T15:13:03.652Z,99.90
2024-03-13T15:15:32.324Z,99.90
2024-03-13T15:18:01.714Z,99.90
2024-03-13T15:20:30.737Z,99.90
2024-03-13T15:22:59.822Z,99.90
2024-03-13T15:25:28.716Z,99.90
2024-03-13T15:27:58.006Z,99.90
2024-03-13T15:30:26.848Z,99.90
2024-03-13T15:32:55.956Z,99.90
2024-03-13T15:35:24.505Z,99.90
2024-03-13T15:37:53.250Z,99.90
2024-03-13T15:40:21.862Z,99.90
2024-03-13T15:42:50.682Z,99.90
2024-03-13T15:45:21.022Z,99.90
2024-03-13T15:47:50.137Z,99.90
2024-03-13T15:50:28.244Z,99.90
2024-03-13T15:53:02.649Z,99.90
2024-03-13T15:55:31.629Z,99.90
2024-03-13T15:58:00.548Z,99.90
2024-03-13T16:00:30.065Z,99.90
2024-03-13T16:02:59.208Z,99.90
2024-03-13T16:05:28.838Z,99.90
2024-03-13T16:08:00.387Z,99.90
2024-03-13T16:10:32.085Z,99.90
2024-03-13T16:13:00.988Z,99.90
2024-03-13T16:15:36.052Z,99.90
2024-03-13T16:18:05.380Z,99.90
2024-03-13T16:20:35.116Z,99.90
2024-03-13T16:23:04.799Z,99.90
2024-03-13T16:25:33.620Z,99.90
2024-03-13T16:28:02.097Z,99.90
2024-03-13T16:30:30.711Z,99.90
2024-03-13T16:33:00.013Z,99.90
2024-03-13T16:35:29.041Z,99.90
2024-03-13T16:38:00.305Z,99.90
2024-03-13T16:40:29.232Z,99.90
2024-03-13T16:42:59.005Z,99.90
2024-03-13T16:45:27.960Z,99.90
2024-03-13T16:47:56.510Z,99.90
2024-03-13T16:50:25.685Z,99.90
2024-03-13T16:52:54.685Z,99.90
2024-03-13T16:55:23.327Z,99.90
2024-03-13T16:57:53.025Z,99.90
2024-03-13T17:00:21.939Z,99.90
2024-03-13T17:02:51.101Z,99.90
2024-03-13T17:05:20.535Z,99.90
2024-03-13T17:07:49.657Z,99.90
2024-03-13T17:10:20.654Z,99.90
2024-03-13T17:12:49.830Z,99.90
2024-03-13T17:15:21.014Z,99.90
2024-03-13T17:17:52.245Z,99.90
2024-03-13T17:20:22.036Z,99.90
2024-03-13T17:22:51.091Z,99.90
2024-03-13T17:25:21.682Z,99.90
2024-03-13T17:27:50.124Z,99.90
2024-03-13T17:30:20.322Z,99.90
2024-03-13T17:32:49.335Z,99.90
2024-03-13T17:35:17.960Z,99.90
2024-03-13T17:37:49.928Z,99.90
2024-03-13T17:40:21.266Z,99.90
2024-03-13T17:42:49.927Z,99.90
2024-03-13T17:45:18.681Z,99.90
2024-03-13T17:47:48.406Z,99.90
2024-03-13T17:50:17.702Z,99.90
2024-03-13T17:52:46.785Z,99.90
2024-03-13T17:55:17.340Z,99.90
2024-03-13T17:57:45.925Z,99.90
2024-03-13T18:00:17.767Z,99.90
2024-03-13T18:02:46.528Z,99.90
2024-03-13T18:05:16.974Z,99.90
2024-03-13T18:07:45.408Z,99.90
2024-03-13T18:10:13.814Z,99.90
2024-03-13T18:12:42.375Z,99.90
2024-03-13T18:15:10.940Z,99.90
2024-03-13T18:17:39.613Z,99.90
2024-03-13T18:20:10.206Z,99.90
2024-03-13T18:22:39.038Z,99.90
2024-03-13T18:25:10.028Z,99.90
2024-03-13T18:27:38.465Z,99.90
2024-03-13T18:30:14.558Z,99.90
2024-03-13T18:32:45.184Z,99.90
2024-03-13T18:35:16.177Z,99.90
2024-03-13T18:37:44.986Z,99.90
2024-03-13T18:40:17.308Z,99.90
2024-03-13T18:42:46.854Z,99.90
2024-03-13T18:45:16.046Z,99.90
2024-03-13T18:47:45.205Z,99.90
2024-03-13T18:50:15.580Z,99.90
2024-03-13T18:52:48.156Z,99.90
2024-03-13T18:55:17.077Z,99.90
2024-03-13T18:57:45.654Z,99.90
2024-03-13T19:00:16.061Z,99.90
2024-03-13T19:02:44.981Z,99.90
2024-03-13T19:05:19.272Z,99.90
2024-03-13T19:07:57.939Z,99.90
2024-03-13T19:10:28.236Z,99.90
2024-03-13T19:12:59.847Z,99.90
2024-03-13T19:15:33.051Z,99.90
2024-03-13T19:18:03.844Z,99.90
2024-03-13T19:20:33.456Z,99.90
2024-03-13T19:23:05.226Z,99.90
2024-03-13T19:25:34.574Z,99.90
2024-03-13T19:28:03.861Z,99.90
2024-03-13T19:30:32.495Z,99.90
2024-03-13T19:33:01.409Z,99.90
2024-03-13T19:35:29.902Z,99.90
2024-03-13T19:37:58.317Z,99.90
2024-03-13T19:40:26.754Z,99.90
2024-03-13T19:42:56.047Z,99.90
2024-03-13T19:45:25.055Z,99.90
2024-03-13T19:47:53.754Z,99.90
2024-03-13T19:50:22.408Z,99.90
2024-03-13T19:52:50.907Z,99.90
2024-03-13T19:55:19.360Z,99.90
2024-03-13T19:57:48.403Z,99.90
2024-03-13T20:00:18.541Z,99.90
2024-03-13T20:02:47.961Z,99.90
2024-03-13T20:05:16.756Z,99.90
2024-03-13T20:07:45.381Z,99.90
2024-03-13T20:10:14.374Z,99.90
2024-03-13T20:12:42.966Z,99.90
2024-03-13T20:15:12.224Z,99.90
2024-03-13T20:17:42.829Z,99.90
2024-03-13T20:20:13.582Z,99.90
2024-03-13T20:22:42.053Z,99.90
2024-03-13T20:25:11.293Z,99.90
2024-03-13T20:27:39.854Z,99.90
2024-03-13T20:30:09.878Z,99.90
2024-03-13T20:32:38.430Z,99.90
2024-03-13T20:35:07.309Z,99.90
2024-03-13T20:37:37.394Z,99.90
2024-03-13T20:40:06.458Z,99.90
2024-03-13T20:42:36.085Z,99.90
2024-03-13T20:45:05.049Z,99.90
2024-03-13T20:47:34.729Z,99.90
2024-03-13T20:50:06.441Z,99.90
2024-03-13T20:52:35.857Z,99.90
2024-03-13T20:55:06.894Z,99.90
2024-03-13T20:57:37.091Z,99.90
2024-03-13T21:00:12.298Z,99.90
2024-03-13T21:02:42.169Z,99.90
2024-03-13T21:05:12.540Z,99.90
2024-03-13T21:07:41.208Z,99.90
2024-03-13T21:10:11.059Z,99.90
2024-03-13T21:12:39.673Z,99.90
2024-03-13T21:15:10.487Z,99.90
2024-03-13T21:17:41.665Z,99.90
2024-03-13T21:20:12.015Z,99.90
2024-03-13T21:22:40.786Z,99.90
2024-03-13T21:25:10.237Z,99.90
2024-03-13T21:27:39.977Z,99.90
2024-03-13T21:30:10.761Z,99.90
2024-03-13T21:32:39.637Z,99.90
2024-03-13T21:35:09.361Z,99.90
2024-03-13T21:37:38.286Z,99.90
2024-03-13T21:40:16.251Z,99.90
2024-03-13T21:42:47.458Z,99.90
2024-03-13T21:45:16.465Z,99.90
2024-03-13T21:47:47.180Z,99.90
2024-03-13T21:50:17.464Z,99.90
2024-03-13T21:52:47.177Z,99.90
2024-03-13T21:55:17.389Z,99.90
2024-03-13T21:57:46.921Z,99.90
2024-03-13T22:00:17.251Z,99.90
2024-03-13T22:02:47.193Z,99.90
2024-03-13T22:05:18.278Z,99.90
2024-03-13T22:07:48.568Z,99.90
2024-03-13T22:10:17.515Z,99.90
2024-03-13T22:12:48.546Z,99.90
2024-03-13T22:15:18.618Z,99.90
2024-03-13T22:17:48.178Z,99.90
2024-03-13T22:20:20.766Z,99.90
2024-03-13T22:22:52.186Z,99.90
2024-03-13T22:25:21.038Z,99.90
2024-03-13T22:27:50.491Z,99.90
2024-03-13T22:30:20.074Z,99.90
2024-03-13T22:32:50.289Z,99.90
2024-03-13T22:35:21.660Z,99.90
2024-03-13T22:37:50.904Z,99.90
2024-03-13T22:40:21.848Z,99.90
2024-03-13T22:42:53.358Z,99.90
2024-03-13T22:45:22.676Z,99.90
2024-03-13T22:47:51.613Z,99.90
2024-03-13T22:50:22.386Z,99.90
2024-03-13T22:52:51.096Z,99.90
2024-03-13T22:55:19.732Z,99.90
2024-03-13T22:57:48.369Z,99.90
2024-03-13T23:00:39.153Z,99.90
2024-03-13T23:03:09.060Z,99.90
2024-03-13T23:05:38.145Z,99.90
2024-03-13T23:08:06.978Z,99.90
2024-03-13T23:10:35.597Z,99.90
2024-03-13T23:13:04.967Z,99.90
2024-03-13T23:15:33.678Z,99.90
2024-03-13T23:18:02.978Z,99.90
2024-03-13T23:20:38.024Z,99.90
2024-03-13T23:23:08.799Z,99.90
2024-03-13T23:25:39.077Z,99.90
2024-03-13T23:28:08.078Z,99.90
2024-03-13T23:30:36.895Z,99.90
2024-03-13T23:33:05.785Z,99.90
2024-03-13T23:35:34.681Z,99.90
2024-03-13T23:38:04.594Z,99.90
2024-03-13T23:40:33.324Z,99.90
2024-03-13T23:43:02.038Z,99.90
2024-03-13T23:45:30.781Z,99.90
2024-03-13T23:47:59.414Z,99.90
2024-03-13T23:50:28.216Z,99.90
2024-03-13T23:52:57.084Z,99.90
2024-03-13T23:55:26.747Z,99.90
2024-03-13T23:57:55.992Z,99.90
